createdAt,value
2019-03-26T00:02:19.928Z,6.07
2019-03-26T00:05:23.283Z,5.99
2019-03-26T00:08:26.593Z,6.08
2019-03-26T00:11:29.899Z,6.12
2019-03-26T00:14:33.177Z,6.17
2019-03-26T00:17:36.468Z,6.23
2019-03-26T00:20:39.767Z,6.21
2019-03-26T00:23:43.075Z,6.20
2019-03-26T00:26:46.367Z,6.19
2019-03-26T00:29:49.657Z,6.25
2019-03-26T00:32:53.037Z,6.25
2019-03-26T00:35:56.337Z,6.33
2019-03-26T00:38:59.644Z,6.32
2019-03-26T00:42:02.934Z,6.14
2019-03-26T00:45:07.122Z,6.18
2019-03-26T00:48:10.420Z,6.14
2019-03-26T00:51:13.706Z,6.10
2019-03-26T00:54:17.006Z,6.05
2019-03-26T00:57:20.308Z,5.93
2019-03-26T01:00:35.820Z,6.02
2019-03-26T01:03:39.124Z,6.11
2019-03-26T01:06:42.490Z,6.20
2019-03-26T01:09:45.800Z,6.26
2019-03-26T01:12:49.164Z,6.21
2019-03-26T01:15:52.460Z,6.25
2019-03-26T01:18:55.760Z,6.25
2019-03-26T01:21:59.089Z,6.12
2019-03-26T01:25:02.378Z,6.24
2019-03-26T01:28:05.684Z,6.15
2019-03-26T01:31:08.988Z,6.13
2019-03-26T01:34:12.298Z,6.09
2019-03-26T01:37:15.608Z,6.07
2019-03-26T01:40:18.889Z,6.04
2019-03-26T01:43:22.205Z,6.17
2019-03-26T01:46:25.491Z,6.35
2019-03-26T01:49:28.786Z,6.41
2019-03-26T01:52:32.081Z,6.29
2019-03-26T01:55:35.378Z,6.37
2019-03-26T01:58:38.684Z,6.21
2019-03-26T02:01:41.977Z,6.19
2019-03-26T02:04:58.835Z,6.18
2019-03-26T02:07:50.307Z,6.21
2019-03-26T02:10:53.607Z,6.05
2019-03-26T02:13:56.903Z,6.33
2019-03-26T02:17:00.225Z,6.35
2019-03-26T02:20:05.055Z,6.44
2019-03-26T02:23:08.353Z,6.52
2019-03-26T02:26:11.662Z,6.54
2019-03-26T02:29:14.958Z,6.45
2019-03-26T02:32:18.248Z,6.45
2019-03-26T02:35:21.571Z,6.39
2019-03-26T02:38:24.864Z,6.19
2019-03-26T02:41:28.164Z,6.19
2019-03-26T02:44:31.462Z,6.38
2019-03-26T02:47:34.775Z,6.29
2019-03-26T02:50:38.066Z,6.36
2019-03-26T02:53:41.377Z,6.38
2019-03-26T02:56:44.679Z,6.33
2019-03-26T02:59:47.997Z,6.50
2019-03-26T03:02:51.292Z,6.49
2019-03-26T03:05:54.607Z,6.53
2019-03-26T03:08:57.908Z,6.56
2019-03-26T03:12:01.224Z,6.46
2019-03-26T03:15:05.865Z,6.39
2019-03-26T03:18:09.199Z,6.33
2019-03-26T03:21:12.520Z,6.23
2019-03-26T03:24:15.837Z,6.16
2019-03-26T03:27:19.133Z,6.03
2019-03-26T03:30:22.461Z,5.96
2019-03-26T03:33:25.774Z,5.85
2019-03-26T03:36:29.077Z,5.77
2019-03-26T03:39:32.423Z,5.71
2019-03-26T03:42:35.864Z,5.67
2019-03-26T03:45:39.171Z,5.49
2019-03-26T03:48:42.645Z,5.23
2019-03-26T03:51:45.943Z,5.19
2019-03-26T03:54:49.289Z,5.22
2019-03-26T03:57:53.189Z,5.23
2019-03-26T04:00:56.609Z,5.07
2019-03-26T04:03:59.948Z,5.12
2019-03-26T04:07:03.288Z,5.10
2019-03-26T04:10:06.625Z,5.00
2019-03-26T04:13:09.933Z,5.00
2019-03-26T04:16:13.244Z,4.97
2019-03-26T04:19:16.565Z,4.87
2019-03-26T04:22:19.872Z,4.77
2019-03-26T04:25:23.212Z,4.74
2019-03-26T04:28:26.501Z,4.70
2019-03-26T04:31:29.819Z,4.76
2019-03-26T04:34:33.165Z,4.69
2019-03-26T04:37:36.500Z,4.67
2019-03-26T04:40:39.818Z,4.56
2019-03-26T04:43:43.125Z,4.65
2019-03-26T04:46:46.498Z,4.67
2019-03-26T04:49:49.783Z,4.53
2019-03-26T04:52:53.097Z,4.35
2019-03-26T04:55:56.390Z,4.42
2019-03-26T04:58:59.877Z,4.54
2019-03-26T05:02:03.197Z,4.68
2019-03-26T05:05:06.591Z,4.60
2019-03-26T05:08:09.909Z,4.70
2019-03-26T05:11:13.226Z,4.87
2019-03-26T05:14:16.548Z,4.90
2019-03-26T05:17:20.044Z,4.85
2019-03-26T05:20:23.369Z,4.73
2019-03-26T05:23:26.674Z,4.86
2019-03-26T05:26:29.969Z,4.88
2019-03-26T05:29:33.358Z,4.94
2019-03-26T05:32:36.765Z,5.14
2019-03-26T05:35:40.082Z,5.21
2019-03-26T05:38:43.394Z,5.12
2019-03-26T05:41:46.713Z,5.22
2019-03-26T05:44:50.056Z,5.11
2019-03-26T05:47:53.413Z,5.08
2019-03-26T05:50:56.743Z,5.43
2019-03-26T05:54:00.051Z,5.49
2019-03-26T05:57:03.358Z,5.58
2019-03-26T06:00:12.989Z,5.77
2019-03-26T06:03:16.315Z,6.69
2019-03-26T06:06:19.612Z,7.05
2019-03-26T06:09:22.928Z,6.91
2019-03-26T06:12:26.244Z,7.01
2019-03-26T06:15:29.570Z,6.87
2019-03-26T06:18:32.916Z,6.71
2019-03-26T06:21:36.175Z,6.41
2019-03-26T06:24:39.489Z,6.43
2019-03-26T06:27:42.823Z,6.48
2019-03-26T06:30:46.143Z,6.57
2019-03-26T06:33:49.457Z,6.67
2019-03-26T06:36:52.750Z,6.55
2019-03-26T06:39:58.380Z,6.44
2019-03-26T06:43:01.132Z,6.42
2019-03-26T06:46:04.431Z,6.39
2019-03-26T06:49:07.809Z,6.23
2019-03-26T06:52:11.148Z,6.08
2019-03-26T06:55:14.635Z,5.94
2019-03-26T06:58:17.947Z,5.92
2019-03-26T07:01:21.259Z,5.74
2019-03-26T07:04:24.595Z,5.73
2019-03-26T07:07:31.854Z,5.71
2019-03-26T07:10:32.920Z,5.82
2019-03-26T07:13:36.228Z,5.86
2019-03-26T07:16:39.577Z,5.95
2019-03-26T07:19:42.946Z,6.05
2019-03-26T07:22:46.270Z,6.03
2019-03-26T07:25:49.579Z,6.14
2019-03-26T07:28:52.878Z,6.27
2019-03-26T07:31:56.212Z,6.28
2019-03-26T07:34:59.519Z,6.27
2019-03-26T07:38:02.823Z,6.27
2019-03-26T07:41:06.134Z,6.36
2019-03-26T07:44:09.433Z,6.47
2019-03-26T07:47:12.754Z,6.53
2019-03-26T07:50:16.089Z,6.47
2019-03-26T07:53:19.384Z,6.37
2019-03-26T07:56:22.693Z,6.32
2019-03-26T07:59:25.995Z,6.32
2019-03-26T08:02:29.322Z,6.28
2019-03-26T08:05:32.647Z,6.24
2019-03-26T08:08:35.948Z,6.33
2019-03-26T08:11:39.257Z,6.29
2019-03-26T08:14:42.583Z,6.35
2019-03-26T08:17:45.888Z,6.46
2019-03-26T08:20:49.227Z,6.48
2019-03-26T08:23:52.521Z,6.45
2019-03-26T08:26:55.847Z,6.50
2019-03-26T08:29:59.164Z,6.61
2019-03-26T08:33:02.480Z,6.79
2019-03-26T08:36:05.855Z,6.91
2019-03-26T08:39:09.162Z,7.11
2019-03-26T08:42:12.498Z,7.30
2019-03-26T08:45:16.086Z,7.58
2019-03-26T08:48:19.398Z,7.85
2019-03-26T08:51:22.707Z,8.04
2019-03-26T08:54:26.014Z,8.09
2019-03-26T08:57:29.328Z,8.16
2019-03-26T09:00:32.713Z,8.52
2019-03-26T09:03:35.939Z,9.05
2019-03-26T09:06:39.430Z,10.92
2019-03-26T09:09:42.740Z,11.38
2019-03-26T09:12:46.071Z,10.70
2019-03-26T09:15:49.349Z,9.50
2019-03-26T09:18:52.670Z,8.78
2019-03-26T09:21:55.986Z,8.42
2019-03-26T09:24:59.285Z,8.22
2019-03-26T09:28:02.595Z,8.17
2019-03-26T09:31:05.907Z,7.98
2019-03-26T09:34:10.032Z,7.92
2019-03-26T09:37:13.517Z,7.80
2019-03-26T09:40:16.823Z,7.88
2019-03-26T09:43:20.126Z,7.83
2019-03-26T09:46:23.433Z,7.90
2019-03-26T09:49:26.747Z,8.01
2019-03-26T09:52:30.064Z,8.78
2019-03-26T09:55:33.383Z,9.39
2019-03-26T09:58:36.699Z,9.74
2019-03-26T10:01:40.004Z,10.75
2019-03-26T10:04:43.354Z,10.98
2019-03-26T10:07:46.645Z,11.11
2019-03-26T10:10:49.934Z,11.17
2019-03-26T10:13:54.527Z,10.87
2019-03-26T10:16:57.781Z,10.47
2019-03-26T10:20:01.162Z,10.22
2019-03-26T10:23:04.482Z,9.69
2019-03-26T10:26:07.803Z,9.42
2019-03-26T10:29:28.883Z,9.25
2019-03-26T10:32:16.128Z,9.15
2019-03-26T10:35:19.434Z,9.27
2019-03-26T10:38:22.753Z,9.50
2019-03-26T10:41:26.049Z,9.92
2019-03-26T10:44:29.391Z,10.55
2019-03-26T10:47:32.702Z,10.85
2019-03-26T10:50:36.028Z,10.66
2019-03-26T10:53:39.340Z,10.64
2019-03-26T10:56:42.644Z,10.60
2019-03-26T10:59:45.975Z,10.27
2019-03-26T11:02:49.268Z,10.11
2019-03-26T11:05:52.593Z,9.85
2019-03-26T11:08:55.925Z,9.62
2019-03-26T11:11:59.207Z,9.52
2019-03-26T11:15:02.864Z,9.46
2019-03-26T11:18:06.165Z,9.53
2019-03-26T11:21:09.473Z,9.35
2019-03-26T11:24:12.801Z,9.22
2019-03-26T11:27:16.095Z,9.02
2019-03-26T11:30:19.473Z,8.71
2019-03-26T11:33:22.850Z,8.73
2019-03-26T11:36:26.159Z,9.01
2019-03-26T11:39:32.919Z,9.35
2019-03-26T11:42:34.479Z,9.50
2019-03-26T11:45:37.777Z,9.81
2019-03-26T11:48:41.074Z,9.98
2019-03-26T11:51:44.401Z,10.20
2019-03-26T11:54:47.690Z,10.08
2019-03-26T11:57:51.013Z,9.93
2019-03-26T12:00:54.314Z,9.71
2019-03-26T12:03:57.625Z,9.76
2019-03-26T12:07:00.922Z,10.05
2019-03-26T12:10:06.459Z,9.85
2019-03-26T12:13:09.760Z,9.80
2019-03-26T12:16:13.055Z,9.60
2019-03-26T12:19:16.362Z,9.57
2019-03-26T12:22:19.662Z,9.67
2019-03-26T12:25:22.985Z,9.69
2019-03-26T12:28:26.314Z,9.64
2019-03-26T12:31:29.652Z,9.60
2019-03-26T12:34:32.950Z,9.63
2019-03-26T12:37:36.271Z,9.57
2019-03-26T12:40:39.579Z,9.43
2019-03-26T12:43:42.895Z,9.33
2019-03-26T12:46:46.208Z,9.22
2019-03-26T12:49:49.536Z,9.13
2019-03-26T12:52:52.849Z,9.12
2019-03-26T12:55:56.161Z,9.30
2019-03-26T12:58:59.472Z,9.31
2019-03-26T13:02:02.772Z,9.22
2019-03-26T13:05:07.176Z,9.19
2019-03-26T13:08:10.498Z,9.27
2019-03-26T13:11:16.907Z,9.30
2019-03-26T13:14:18.818Z,9.33
2019-03-26T13:17:22.124Z,9.33
2019-03-26T13:20:25.441Z,9.27
2019-03-26T13:23:28.835Z,9.28
2019-03-26T13:26:32.138Z,9.38
2019-03-26T13:29:35.457Z,9.40
2019-03-26T13:32:38.964Z,9.51
2019-03-26T13:35:42.285Z,9.62
2019-03-26T13:38:45.598Z,9.88
2019-03-26T13:41:48.910Z,10.01
2019-03-26T13:44:52.235Z,10.17
2019-03-26T13:47:55.533Z,10.13
2019-03-26T13:50:58.855Z,10.24
2019-03-26T13:54:02.269Z,10.23
2019-03-26T13:57:05.573Z,10.19
2019-03-26T14:00:09.030Z,10.19
2019-03-26T14:03:12.341Z,10.18
2019-03-26T14:06:15.669Z,10.23
2019-03-26T14:09:19.000Z,10.20
2019-03-26T14:12:22.371Z,10.07
2019-03-26T14:15:25.678Z,10.14
2019-03-26T14:18:28.999Z,10.15
2019-03-26T14:21:32.293Z,10.08
2019-03-26T14:24:35.598Z,10.03
2019-03-26T14:27:38.925Z,10.12
2019-03-26T14:30:43.130Z,10.20
2019-03-26T14:33:46.409Z,10.21
2019-03-26T14:36:49.738Z,10.12
2019-03-26T14:39:54.573Z,10.04
2019-03-26T14:42:57.958Z,9.99
2019-03-26T14:46:01.336Z,10.02
2019-03-26T14:49:04.650Z,9.80
2019-03-26T14:52:08.154Z,9.78
2019-03-26T14:55:11.475Z,9.58
2019-03-26T14:58:14.766Z,9.46
2019-03-26T15:01:18.082Z,9.49
2019-03-26T15:04:40.802Z,9.47
2019-03-26T15:07:44.167Z,9.41
2019-03-26T15:10:52.627Z,9.35
2019-03-26T15:13:56.133Z,9.32
2019-03-26T15:16:59.430Z,9.12
2019-03-26T15:20:02.985Z,9.13
2019-03-26T15:23:06.345Z,9.10
2019-03-26T15:26:09.613Z,9.01
2019-03-26T15:29:12.921Z,8.82
2019-03-26T15:32:16.235Z,8.89
2019-03-26T15:35:19.518Z,8.75
2019-03-26T15:38:23.156Z,8.70
2019-03-26T15:41:26.476Z,8.71
2019-03-26T15:44:29.767Z,8.63
2019-03-26T15:47:33.073Z,8.59
2019-03-26T15:50:44.664Z,8.64
2019-03-26T15:53:48.042Z,8.61
2019-03-26T15:56:51.379Z,8.53
2019-03-26T15:59:54.672Z,8.58
2019-03-26T16:02:58.059Z,8.58
2019-03-26T16:06:01.470Z,8.53
2019-03-26T16:09:07.600Z,8.49
2019-03-26T16:12:10.997Z,8.44
2019-03-26T16:15:14.286Z,8.47
2019-03-26T16:18:17.584Z,8.48
2019-03-26T16:21:20.901Z,8.43
2019-03-26T16:24:24.182Z,8.45
2019-03-26T16:27:27.504Z,8.44
2019-03-26T16:30:32.961Z,8.40
2019-03-26T16:33:35.845Z,8.43
2019-03-26T16:36:39.179Z,8.34
2019-03-26T16:39:42.528Z,8.40
2019-03-26T16:42:45.846Z,8.38
2019-03-26T16:45:49.130Z,8.36
2019-03-26T16:48:52.469Z,8.35
2019-03-26T16:51:55.784Z,8.31
2019-03-26T16:54:59.071Z,8.04
2019-03-26T16:58:02.376Z,7.84
2019-03-26T17:01:07.264Z,7.75
2019-03-26T17:04:10.491Z,7.76
2019-03-26T17:07:13.808Z,7.73
2019-03-26T17:10:17.140Z,7.67
2019-03-26T17:13:20.468Z,7.64
2019-03-26T17:16:23.757Z,7.59
2019-03-26T17:19:27.084Z,7.52
2019-03-26T17:22:30.406Z,7.48
2019-03-26T17:25:33.689Z,7.56
2019-03-26T17:28:37.025Z,7.57
2019-03-26T17:31:40.326Z,7.49
2019-03-26T17:34:43.649Z,7.46
2019-03-26T17:37:58.876Z,7.48
2019-03-26T17:40:51.999Z,7.50
2019-03-26T17:43:55.318Z,7.60
2019-03-26T17:46:58.606Z,7.64
2019-03-26T17:50:02.022Z,7.66
2019-03-26T17:53:05.307Z,7.61
2019-03-26T17:56:08.612Z,7.59
2019-03-26T17:59:11.972Z,7.59
2019-03-26T18:02:15.351Z,7.65
2019-03-26T18:05:24.429Z,7.67
2019-03-26T18:08:27.799Z,7.77
2019-03-26T18:11:31.128Z,7.79
2019-03-26T18:14:34.516Z,7.78
2019-03-26T18:17:37.863Z,7.79
2019-03-26T18:20:42.795Z,7.81
2019-03-26T18:23:46.099Z,7.83
2019-03-26T18:26:49.471Z,7.87
2019-03-26T18:29:52.800Z,7.87
2019-03-26T18:32:56.100Z,7.89
2019-03-26T18:35:59.479Z,7.77
2019-03-26T18:39:04.628Z,7.85
2019-03-26T18:42:07.934Z,7.80
2019-03-26T18:45:11.286Z,7.85
2019-03-26T18:48:14.601Z,7.79
2019-03-26T18:51:17.917Z,7.77
2019-03-26T18:54:21.244Z,7.79
2019-03-26T18:57:24.532Z,7.76
2019-03-26T19:00:34.811Z,7.80
2019-03-26T19:03:38.134Z,7.84
2019-03-26T19:06:41.432Z,7.81
2019-03-26T19:09:45.613Z,7.75
2019-03-26T19:12:56.855Z,7.72
2019-03-26T19:15:54.037Z,7.75
2019-03-26T19:18:57.366Z,7.74
2019-03-26T19:22:00.927Z,7.68
2019-03-26T19:25:05.607Z,7.70
2019-03-26T19:28:09.016Z,7.73
2019-03-26T19:31:12.454Z,7.75
2019-03-26T19:34:15.848Z,7.83
2019-03-26T19:37:19.158Z,7.82
2019-03-26T19:40:22.469Z,7.83
2019-03-26T19:43:25.802Z,7.72
2019-03-26T19:46:29.109Z,7.77
2019-03-26T19:49:32.516Z,7.75
2019-03-26T19:52:35.849Z,7.70
2019-03-26T19:55:39.186Z,7.65
2019-03-26T19:58:44.474Z,7.70
2019-03-26T20:01:47.878Z,7.76
2019-03-26T20:04:51.217Z,7.74
2019-03-26T20:07:54.548Z,7.73
2019-03-26T20:10:57.859Z,7.78
2019-03-26T20:14:01.163Z,7.81
2019-03-26T20:17:04.497Z,7.81
2019-03-26T20:20:07.858Z,7.76
2019-03-26T20:23:11.183Z,7.77
2019-03-26T20:26:14.568Z,7.80
2019-03-26T20:29:17.861Z,7.80
2019-03-26T20:32:21.164Z,7.75
2019-03-26T20:35:24.455Z,7.86
2019-03-26T20:38:27.803Z,7.87
2019-03-26T20:41:31.106Z,7.86
2019-03-26T20:44:34.427Z,7.87
2019-03-26T20:47:37.736Z,7.88
2019-03-26T20:50:41.077Z,7.87
2019-03-26T20:53:44.462Z,7.87
2019-03-26T20:56:47.783Z,7.85
2019-03-26T20:59:51.118Z,7.86
2019-03-26T21:02:54.451Z,7.84
2019-03-26T21:05:57.804Z,7.87
2019-03-26T21:09:01.157Z,7.82
2019-03-26T21:12:04.526Z,7.82
2019-03-26T21:15:09.537Z,7.86
2019-03-26T21:18:12.863Z,7.78
2019-03-26T21:21:16.182Z,7.84
2019-03-26T21:24:19.525Z,7.93
2019-03-26T21:27:22.869Z,7.95
2019-03-26T21:30:27.943Z,7.95
2019-03-26T21:33:31.263Z,7.97
2019-03-26T21:36:34.592Z,7.97
2019-03-26T21:39:42.337Z,7.91
2019-03-26T21:42:45.647Z,7.96
2019-03-26T21:45:48.990Z,7.91
2019-03-26T21:48:52.327Z,7.98
2019-03-26T21:51:55.650Z,7.98
2019-03-26T21:54:58.971Z,7.96
2019-03-26T21:58:02.307Z,7.93
2019-03-26T22:01:05.611Z,7.93
2019-03-26T22:04:08.951Z,7.90
2019-03-26T22:07:12.272Z,7.88
2019-03-26T22:10:16.471Z,7.83
2019-03-26T22:13:19.805Z,7.69
2019-03-26T22:16:23.129Z,7.72
2019-03-26T22:19:28.763Z,7.74
2019-03-26T22:22:31.479Z,7.70
2019-03-26T22:25:34.787Z,7.67
2019-03-26T22:28:38.106Z,7.66
2019-03-26T22:31:41.409Z,7.66
2019-03-26T22:34:44.731Z,7.55
2019-03-26T22:37:48.063Z,7.65
2019-03-26T22:40:51.379Z,7.62
2019-03-26T22:43:55.254Z,7.56
2019-03-26T22:46:58.713Z,7.63
2019-03-26T22:50:02.034Z,7.62
2019-03-26T22:53:05.385Z,7.62
2019-03-26T22:56:08.708Z,7.56
2019-03-26T22:59:12.047Z,7.56
2019-03-26T23:02:15.394Z,7.52
2019-03-26T23:05:18.786Z,7.54
2019-03-26T23:08:22.095Z,7.47
2019-03-26T23:11:25.375Z,7.56
2019-03-26T23:14:28.696Z,7.46
2019-03-26T23:17:32.001Z,7.49
2019-03-26T23:20:35.328Z,7.40
2019-03-26T23:23:38.641Z,7.45
2019-03-26T23:26:41.984Z,7.42
2019-03-26T23:29:45.283Z,7.42
2019-03-26T23:32:48.624Z,7.40
2019-03-26T23:35:51.937Z,7.30
2019-03-26T23:38:55.263Z,7.30
2019-03-26T23:41:58.726Z,7.35
2019-03-26T23:45:02.074Z,7.33
2019-03-26T23:48:05.359Z,7.33
2019-03-26T23:51:08.677Z,7.29
2019-03-26T23:54:12.022Z,7.29
2019-03-26T23:57:15.320Z,7.35
